createdAt,value
2023-01-08T11:56:19.986Z,46.66
2023-01-08T11:59:05.314Z,44.04
2023-01-08T12:01:46.495Z,43.75
2023-01-08T12:04:41.176Z,40.57
2023-01-08T12:07:17.245Z,41.75
2023-01-08T12:09:49.677Z,41.27
2023-01-08T12:21:25.597Z,42.02
2023-01-08T12:24:11.995Z,41.46
2023-01-08T12:26:54.223Z,40.60
2023-01-08T12:30:01.118Z,39.47
2023-01-08T12:32:35.535Z,40.89
2023-01-08T12:35:09.781Z,41.07
2023-01-08T12:37:51.086Z,41.81
2023-01-08T12:40:24.808Z,42.16
2023-01-08T12:43:00.534Z,42.29
2023-01-08T12:45:30.604Z,42.48
2023-01-08T12:48:06.829Z,43.39
2023-01-08T12:50:51.152Z,43.65
2023-01-08T12:53:34.902Z,44.03
2023-01-08T12:56:11.392Z,44.31
2023-01-08T12:58:59.500Z,45.11
2023-01-08T13:01:42.535Z,45.25
2023-01-08T13:04:11.225Z,45.32
2023-01-08T13:06:48.718Z,45.24
2023-01-08T13:09:24.227Z,45.40
2023-01-08T13:11:55.141Z,45.44
2023-01-08T13:14:25.189Z,45.40
2023-01-08T13:17:04.803Z,45.54
2023-01-08T13:19:42.013Z,45.52
2023-01-08T13:22:28.367Z,45.83
2023-01-08T13:25:27.118Z,46.24
2023-01-08T13:27:54.497Z,46.19
2023-01-08T13:30:42.125Z,46.26
2023-01-08T13:33:35.732Z,45.89
2023-01-08T13:36:23.966Z,45.75
2023-01-08T13:39:04.390Z,45.74
2023-01-08T13:41:35.457Z,45.84
2023-01-08T13:44:06.177Z,46.04
2023-01-08T13:46:40.720Z,46.06
2023-01-08T13:49:19.127Z,46.71
2023-01-08T13:51:47.412Z,46.49
2023-01-08T13:54:31.991Z,46.99
2023-01-08T13:57:12.144Z,46.58
2023-01-08T13:59:43.089Z,46.53
2023-01-08T14:02:28.192Z,47.01
2023-01-08T14:05:01.496Z,47.15
2023-01-08T14:07:30.483Z,47.32
2023-01-08T14:10:08.785Z,47.29
2023-01-08T14:12:37.157Z,47.44
2023-01-08T14:15:09.865Z,47.74
2023-01-08T14:17:37.052Z,47.49
2023-01-08T14:20:12.951Z,47.54
2023-01-08T14:22:42.041Z,47.59
2023-01-08T14:25:17.912Z,47.62
2023-01-08T14:27:57.700Z,47.83
2023-01-08T14:30:25.781Z,48.06
2023-01-08T14:32:54.579Z,48.29
2023-01-08T14:35:34.348Z,48.18
2023-01-08T14:38:06.670Z,48.00
2023-01-08T14:40:42.025Z,48.58
2023-01-08T14:43:23.061Z,48.75
2023-01-08T14:45:54.539Z,48.75
2023-01-08T14:48:25.604Z,48.92
2023-01-08T14:51:03.041Z,48.79
2023-01-08T14:53:36.510Z,48.70
2023-01-08T14:56:06.802Z,48.71
2023-01-08T14:58:40.135Z,48.88
2023-01-08T15:01:16.097Z,48.86
2023-01-08T15:03:45.990Z,48.98
2023-01-08T15:06:25.355Z,49.17
2023-01-08T15:08:53.163Z,48.89
2023-01-08T15:11:23.780Z,48.73
2023-01-08T15:13:54.341Z,48.95
2023-01-08T15:16:29.092Z,49.03
2023-01-08T15:19:05.300Z,49.02
2023-01-08T15:21:34.445Z,48.61
2023-01-08T15:24:04.273Z,49.38
2023-01-08T15:26:31.903Z,49.33
2023-01-08T15:29:04.635Z,49.25
2023-01-08T15:31:45.392Z,49.30
2023-01-08T15:34:12.461Z,49.46
2023-01-08T15:36:39.411Z,49.65
2023-01-08T15:39:06.484Z,49.74
2023-01-08T15:41:54.645Z,49.81
2023-01-08T15:44:23.628Z,50.00
2023-01-08T15:46:52.099Z,50.29
2023-01-08T15:49:19.513Z,50.36
2023-01-08T15:51:49.747Z,50.45
2023-01-08T15:54:17.141Z,50.69
2023-01-08T15:56:44.872Z,50.69
2023-01-08T15:59:12.091Z,50.38
2023-01-08T16:01:40.409Z,50.93
2023-01-08T16:04:07.627Z,51.12
2023-01-08T16:06:36.103Z,51.33
2023-01-08T16:09:03.663Z,51.20
2023-01-08T16:11:30.725Z,51.04
2023-01-08T16:13:57.636Z,51.26
2023-01-08T16:16:24.584Z,51.60
2023-01-08T16:18:52.931Z,51.72
2023-01-08T16:21:19.808Z,51.96
2023-01-08T16:23:46.734Z,51.11
2023-01-08T16:26:16.113Z,51.42
2023-01-08T16:28:43.009Z,51.65
2023-01-08T16:31:10.855Z,51.60
2023-01-08T16:33:38.187Z,51.66
2023-01-08T16:36:08.829Z,51.52
2023-01-08T16:38:36.639Z,51.67
2023-01-08T16:41:05.849Z,51.60
2023-01-08T16:43:40.516Z,51.79
2023-01-08T16:46:12.633Z,52.13
2023-01-08T16:48:40.792Z,52.38
2023-01-08T16:51:09.760Z,52.43
2023-01-08T16:53:37.250Z,52.59
2023-01-08T16:56:05.521Z,52.66
2023-01-08T16:58:34.843Z,53.09
2023-01-08T17:01:03.480Z,53.28
2023-01-08T17:03:30.760Z,53.43
2023-01-08T17:06:04.514Z,53.73
2023-01-08T17:08:33.448Z,53.99
2023-01-08T17:11:00.350Z,54.15
2023-01-08T17:13:27.203Z,54.09
2023-01-08T17:15:54.109Z,54.23
2023-01-08T17:18:21.004Z,54.58
2023-01-08T17:20:53.319Z,54.42
2023-01-08T17:23:20.340Z,54.54
2023-01-08T17:25:48.818Z,54.52
2023-01-08T17:28:15.688Z,54.69
2023-01-08T17:30:42.565Z,54.96
2023-01-08T17:33:09.508Z,55.23
2023-01-08T17:35:36.367Z,55.39
2023-01-08T17:38:03.266Z,55.54
2023-01-08T17:40:30.171Z,55.82
2023-01-08T17:42:58.349Z,55.98
2023-01-08T17:45:25.716Z,56.64
2023-01-08T17:47:52.646Z,56.79
2023-01-08T17:50:20.129Z,56.83
2023-01-08T17:52:47.072Z,56.71
2023-01-08T17:55:13.960Z,57.08
2023-01-08T17:57:40.994Z,56.98
2023-01-08T18:00:11.197Z,57.18
2023-01-08T18:02:38.409Z,57.28
2023-01-08T18:05:06.592Z,57.44
2023-01-08T18:07:34.309Z,57.23
2023-01-08T18:10:01.542Z,57.52
2023-01-08T18:12:28.559Z,57.64
2023-01-08T18:14:55.426Z,57.88
2023-01-08T18:17:23.646Z,57.78
2023-01-08T18:19:50.496Z,58.46
2023-01-08T18:22:17.364Z,58.23
2023-01-08T18:24:45.295Z,58.30
2023-01-08T18:27:12.364Z,58.26
2023-01-08T18:29:39.294Z,58.55
2023-01-08T18:32:06.405Z,58.69
2023-01-08T18:34:34.745Z,58.68
2023-01-08T18:37:01.612Z,58.49
2023-01-08T18:39:29.828Z,58.79
2023-01-08T18:42:15.169Z,58.51
2023-01-08T18:44:42.032Z,58.89
2023-01-08T18:47:09.360Z,58.51
2023-01-08T18:49:37.857Z,58.74
2023-01-08T18:52:05.085Z,58.38
2023-01-08T18:54:33.241Z,58.70
2023-01-08T18:57:01.995Z,58.58
2023-01-08T18:59:28.875Z,58.04
2023-01-08T19:01:55.803Z,58.30
2023-01-08T19:04:22.743Z,58.03
2023-01-08T19:06:50.988Z,58.10
2023-01-08T19:09:17.942Z,58.14
2023-01-08T19:11:44.979Z,58.10
2023-01-08T19:14:13.236Z,58.05
2023-01-08T19:16:40.907Z,57.87
2023-01-08T19:19:07.832Z,58.43
2023-01-08T19:21:34.739Z,58.04
2023-01-08T19:24:02.986Z,58.08
2023-01-08T19:26:29.834Z,58.31
2023-01-08T19:28:56.722Z,58.31
2023-01-08T19:31:23.616Z,58.69
2023-01-08T19:33:52.623Z,58.63
2023-01-08T19:36:20.978Z,58.87
2023-01-08T19:38:47.932Z,58.86
2023-01-08T19:41:34.388Z,58.85
2023-01-08T19:44:01.417Z,58.88
2023-01-08T19:46:29.131Z,58.67
2023-01-08T19:48:58.552Z,58.53
2023-01-08T19:51:27.221Z,58.71
2023-01-08T19:53:56.587Z,59.36
2023-01-08T19:56:25.000Z,58.99
2023-01-08T19:58:51.872Z,58.77
2023-01-08T20:01:24.174Z,59.30
2023-01-08T20:03:52.182Z,59.17
2023-01-08T20:06:22.703Z,59.26
2023-01-08T20:08:54.069Z,59.33
2023-01-08T20:11:22.325Z,59.25
2023-01-08T20:13:51.756Z,58.96
2023-01-08T20:16:21.163Z,58.98
2023-01-08T20:18:49.162Z,58.79
2023-01-08T20:21:20.784Z,58.74
2023-01-08T20:23:48.691Z,58.48
2023-01-08T20:26:18.349Z,58.59
2023-01-08T20:28:46.799Z,58.78
2023-01-08T20:31:17.413Z,58.21
2023-01-08T20:33:45.729Z,58.25
2023-01-08T20:36:15.710Z,58.46
2023-01-08T20:38:43.511Z,58.74
2023-01-08T20:41:11.351Z,58.44
2023-01-08T20:43:40.262Z,59.08
2023-01-08T20:46:09.839Z,58.97
2023-01-08T20:48:47.044Z,58.80
2023-01-08T20:51:15.277Z,58.97
2023-01-08T20:53:42.258Z,59.35
2023-01-08T20:56:12.397Z,59.42
2023-01-08T20:58:44.619Z,59.27
2023-01-08T21:01:14.664Z,59.82
2023-01-08T21:03:44.570Z,60.08
2023-01-08T21:06:15.371Z,59.96
2023-01-08T21:08:44.379Z,60.21
2023-01-08T21:11:14.009Z,60.33
2023-01-08T21:13:41.916Z,60.54
2023-01-08T21:16:14.516Z,60.79
2023-01-08T21:18:47.079Z,60.37
2023-01-08T21:21:17.355Z,60.79
2023-01-08T21:23:46.524Z,60.29
2023-01-08T21:26:15.697Z,61.19
2023-01-08T21:28:43.540Z,60.69
2023-01-08T21:31:14.091Z,61.36
2023-01-08T21:33:47.746Z,61.10
2023-01-08T21:36:18.929Z,61.17
2023-01-08T21:38:46.388Z,61.60
2023-01-08T21:41:35.614Z,61.58
2023-01-08T21:44:23.044Z,61.83
2023-01-08T21:46:50.582Z,61.36
2023-01-08T21:49:18.766Z,61.74
2023-01-08T21:52:03.951Z,61.81
2023-01-08T21:54:30.886Z,61.65
2023-01-08T21:56:57.781Z,61.69
2023-01-08T21:59:24.714Z,62.14
2023-01-08T22:01:51.623Z,61.67
2023-01-08T22:04:19.878Z,61.95
2023-01-08T22:06:46.738Z,61.98
2023-01-08T22:09:13.591Z,61.68
2023-01-08T22:11:40.471Z,61.51
2023-01-08T22:14:07.345Z,61.54
2023-01-08T22:16:34.262Z,61.64
2023-01-08T22:19:01.260Z,61.24
2023-01-08T22:21:29.455Z,61.60
2023-01-08T22:23:56.853Z,61.66
2023-01-08T22:26:24.046Z,61.71
2023-01-08T22:28:51.111Z,61.26
2023-01-08T22:31:18.134Z,61.51
2023-01-08T22:33:45.054Z,61.42
2023-01-08T22:36:14.446Z,61.65
2023-01-08T22:38:42.674Z,61.87
2023-01-08T22:41:16.928Z,61.58
2023-01-08T22:43:43.952Z,61.56
2023-01-08T22:46:14.886Z,61.11
2023-01-08T22:48:42.454Z,61.05
2023-01-08T22:51:10.011Z,61.69
2023-01-08T22:53:37.129Z,61.22
2023-01-08T22:56:12.153Z,61.00
2023-01-08T22:58:40.531Z,61.49
2023-01-08T23:01:12.737Z,61.13
2023-01-08T23:03:44.426Z,61.32
2023-01-08T23:06:12.839Z,61.55
2023-01-08T23:08:41.984Z,61.08
2023-01-08T23:11:15.378Z,61.13
2023-01-08T23:13:43.155Z,61.16
2023-01-08T23:16:13.408Z,61.66
2023-01-08T23:18:41.344Z,61.14
2023-01-08T23:21:11.854Z,60.98
2023-01-08T23:23:39.177Z,61.68
2023-01-08T23:26:08.948Z,61.42
2023-01-08T23:28:37.976Z,61.60
2023-01-08T23:31:06.977Z,61.09
2023-01-08T23:33:33.852Z,61.07
2023-01-08T23:36:01.107Z,61.63
2023-01-08T23:38:28.461Z,61.28
2023-01-08T23:40:55.887Z,61.39
2023-01-08T23:43:22.830Z,61.12
2023-01-08T23:45:52.793Z,61.11
2023-01-08T23:48:19.689Z,61.15
2023-01-08T23:50:46.773Z,61.03
2023-01-08T23:53:13.617Z,61.28
2023-01-08T23:55:41.344Z,60.92
2023-01-08T23:58:08.965Z,60.70
